createdAt,value
2022-08-26T00:00:25.804Z,73.33
2022-08-26T00:01:29.686Z,73.22
2022-08-26T00:02:25.820Z,73.43
2022-08-26T00:03:25.776Z,73.33
2022-08-26T00:04:26.156Z,73.53
2022-08-26T00:05:25.755Z,73.43
2022-08-26T00:06:25.745Z,73.53
2022-08-26T00:07:25.756Z,73.72
2022-08-26T00:08:25.726Z,73.83
2022-08-26T00:09:25.726Z,73.96
2022-08-26T00:10:25.834Z,74.06
2022-08-26T00:11:26.535Z,74.06
2022-08-26T00:12:34.360Z,73.96
2022-08-26T00:13:26.667Z,74.06
2022-08-26T00:14:30.821Z,74.06
2022-08-26T00:15:26.654Z,74.26
2022-08-26T00:16:25.734Z,74.26
2022-08-26T00:17:25.635Z,74.26
2022-08-26T00:18:25.945Z,74.26
2022-08-26T00:19:25.622Z,74.26
2022-08-26T00:20:25.617Z,74.46
2022-08-26T00:21:25.811Z,74.46
2022-08-26T00:22:25.567Z,74.46
2022-08-26T00:23:25.554Z,74.46
2022-08-26T00:24:25.593Z,74.56
2022-08-26T00:25:25.549Z,74.66
2022-08-26T00:26:28.501Z,74.56
2022-08-26T00:27:25.552Z,74.70
2022-08-26T00:28:25.501Z,74.70
2022-08-26T00:29:25.510Z,74.80
2022-08-26T00:30:26.516Z,74.70
2022-08-26T00:31:25.585Z,74.76
2022-08-26T00:32:26.413Z,74.76
2022-08-26T00:33:25.446Z,74.56
2022-08-26T00:34:25.433Z,74.56
2022-08-26T00:35:25.441Z,74.66
2022-08-26T00:36:25.407Z,74.56
2022-08-26T00:37:25.439Z,74.56
2022-08-26T00:38:25.383Z,74.56
2022-08-26T00:39:25.375Z,74.76
2022-08-26T00:40:25.540Z,74.60
2022-08-26T00:41:25.354Z,74.80
2022-08-26T00:42:25.357Z,74.90
2022-08-26T00:43:25.336Z,74.90
2022-08-26T00:44:25.316Z,74.90
2022-08-26T00:45:25.366Z,74.70
2022-08-26T00:46:25.320Z,74.40
2022-08-26T00:47:25.309Z,74.20
2022-08-26T00:48:26.301Z,74.50
2022-08-26T00:49:26.277Z,74.60
2022-08-26T00:50:25.275Z,74.70
2022-08-26T00:51:29.706Z,74.70
2022-08-26T00:52:25.240Z,74.70
2022-08-26T00:53:26.066Z,74.70
2022-08-26T00:54:26.921Z,74.60
2022-08-26T00:55:25.233Z,74.50
2022-08-26T00:56:26.198Z,74.30
2022-08-26T00:57:25.186Z,74.40
2022-08-26T00:58:25.173Z,74.40
2022-08-26T00:59:25.205Z,74.60
2022-08-26T01:00:25.157Z,74.63
2022-08-26T01:01:25.252Z,74.73
2022-08-26T01:02:25.152Z,74.84
2022-08-26T01:03:25.119Z,74.93
2022-08-26T01:04:26.155Z,75.04
2022-08-26T01:05:25.118Z,75.04
2022-08-26T01:06:25.076Z,75.23
2022-08-26T01:07:25.067Z,75.34
2022-08-26T01:08:25.055Z,75.34
2022-08-26T01:09:25.048Z,75.34
2022-08-26T01:10:25.094Z,75.57
2022-08-26T01:11:25.051Z,75.47
2022-08-26T01:12:25.069Z,75.57
2022-08-26T01:13:25.000Z,75.47
2022-08-26T01:14:24.995Z,75.47
2022-08-26T01:15:24.998Z,75.57
2022-08-26T01:16:25.056Z,75.77
2022-08-26T01:17:24.952Z,75.87
2022-08-26T01:18:24.967Z,76.07
2022-08-26T01:19:24.941Z,76.21
2022-08-26T01:20:24.965Z,76.41
2022-08-26T01:21:24.964Z,76.51
2022-08-26T01:22:28.108Z,76.61
2022-08-26T01:23:24.940Z,76.61
2022-08-26T01:24:24.872Z,76.61
2022-08-26T01:25:24.885Z,76.61
2022-08-26T01:26:24.865Z,76.61
2022-08-26T01:27:25.587Z,76.51
2022-08-26T01:28:24.834Z,76.51
2022-08-26T01:29:24.841Z,76.31
2022-08-26T01:30:24.808Z,76.21
2022-08-26T01:31:24.946Z,76.07
2022-08-26T01:32:24.790Z,75.97
2022-08-26T01:33:24.784Z,75.87
2022-08-26T01:34:24.808Z,75.77
2022-08-26T01:35:24.757Z,75.67
2022-08-26T01:36:24.760Z,75.67
2022-08-26T01:37:24.729Z,75.67
2022-08-26T01:38:24.709Z,75.67
2022-08-26T01:39:24.710Z,75.77
2022-08-26T01:40:24.750Z,75.77
2022-08-26T01:41:27.142Z,75.97
2022-08-26T01:42:24.693Z,76.07
2022-08-26T01:43:24.660Z,76.07
2022-08-26T01:44:24.652Z,75.87
2022-08-26T01:45:24.729Z,75.77
2022-08-26T01:46:24.655Z,75.77
2022-08-26T01:47:24.651Z,75.77
2022-08-26T01:48:24.612Z,75.87
2022-08-26T01:49:24.607Z,76.01
2022-08-26T01:50:27.819Z,76.01
2022-08-26T01:51:25.588Z,75.91
2022-08-26T01:52:24.606Z,75.91
2022-08-26T01:53:24.565Z,75.81
2022-08-26T01:54:24.544Z,76.01
2022-08-26T01:55:32.281Z,76.01
2022-08-26T01:56:25.554Z,76.21
2022-08-26T01:57:25.513Z,76.21
2022-08-26T01:58:24.507Z,76.21
2022-08-26T01:59:24.484Z,76.31
2022-08-26T02:00:24.482Z,76.31
2022-08-26T02:01:24.504Z,76.41
2022-08-26T02:02:24.667Z,76.51
2022-08-26T02:03:24.545Z,76.61
2022-08-26T02:04:24.521Z,76.61
2022-08-26T02:05:24.463Z,76.75
2022-08-26T02:06:24.409Z,76.95
2022-08-26T02:07:26.639Z,77.15
2022-08-26T02:08:24.707Z,77.35
2022-08-26T02:09:24.387Z,77.55
2022-08-26T02:10:24.366Z,77.65
2022-08-26T02:11:24.392Z,77.75
2022-08-26T02:12:24.335Z,77.89
2022-08-26T02:13:24.400Z,77.75
2022-08-26T02:14:24.344Z,77.55
2022-08-26T02:15:24.308Z,77.45
2022-08-26T02:16:24.385Z,77.25
2022-08-26T02:17:25.260Z,77.15
2022-08-26T02:18:24.310Z,76.95
2022-08-26T02:19:24.267Z,76.95
2022-08-26T02:20:26.439Z,76.85
2022-08-26T02:21:24.998Z,76.95
2022-08-26T02:22:24.696Z,77.19
2022-08-26T02:23:24.474Z,77.19
2022-08-26T02:24:24.210Z,77.19
2022-08-26T02:25:26.153Z,77.28
2022-08-26T02:26:24.189Z,77.39
2022-08-26T02:27:24.188Z,77.48
2022-08-26T02:28:26.725Z,77.48
2022-08-26T02:29:24.161Z,77.59
2022-08-26T02:30:24.167Z,77.69
2022-08-26T02:31:24.200Z,77.79
2022-08-26T02:32:24.127Z,77.79
2022-08-26T02:33:24.132Z,77.89
2022-08-26T02:34:24.103Z,77.99
2022-08-26T02:35:24.120Z,77.99
2022-08-26T02:36:24.084Z,77.99
2022-08-26T02:37:25.060Z,78.09
2022-08-26T02:38:24.084Z,77.99
2022-08-26T02:39:24.061Z,77.99
2022-08-26T02:40:25.053Z,77.99
2022-08-26T02:41:24.022Z,78.09
2022-08-26T02:42:24.016Z,77.99
2022-08-26T02:43:32.839Z,77.99
2022-08-26T02:44:25.006Z,78.19
2022-08-26T02:45:23.977Z,78.29
2022-08-26T02:46:29.877Z,78.19
2022-08-26T02:47:25.920Z,78.33
2022-08-26T02:48:23.973Z,78.33
2022-08-26T02:49:23.946Z,78.42
2022-08-26T02:50:23.939Z,78.42
2022-08-26T02:51:23.911Z,78.53
2022-08-26T02:52:23.908Z,78.63
2022-08-26T02:53:25.484Z,78.73
2022-08-26T02:54:23.899Z,78.83
2022-08-26T02:55:24.815Z,78.93
2022-08-26T02:56:23.899Z,78.93
2022-08-26T02:57:23.841Z,78.93
2022-08-26T02:58:23.843Z,79.03
2022-08-26T02:59:24.456Z,79.06
2022-08-26T03:00:23.914Z,79.17
2022-08-26T03:01:23.892Z,79.27
2022-08-26T03:02:23.842Z,79.27
2022-08-26T03:03:23.894Z,79.37
2022-08-26T03:04:23.765Z,79.37
2022-08-26T03:05:24.058Z,79.47
2022-08-26T03:06:23.749Z,79.37
2022-08-26T03:07:23.755Z,79.27
2022-08-26T03:08:23.735Z,79.17
2022-08-26T03:09:23.729Z,79.17
2022-08-26T03:10:23.716Z,79.27
2022-08-26T03:11:23.723Z,79.37
2022-08-26T03:12:23.741Z,79.37
2022-08-26T03:13:23.675Z,79.27
2022-08-26T03:14:23.676Z,79.27
2022-08-26T03:15:23.671Z,79.23
2022-08-26T03:16:23.689Z,79.27
2022-08-26T03:17:23.646Z,79.33
2022-08-26T03:18:23.610Z,79.37
2022-08-26T03:19:23.601Z,79.37
2022-08-26T03:20:23.581Z,79.37
2022-08-26T03:21:24.239Z,79.47
2022-08-26T03:22:23.590Z,79.43
2022-08-26T03:23:23.581Z,79.63
2022-08-26T03:24:23.582Z,79.53
2022-08-26T03:25:23.581Z,79.43
2022-08-26T03:26:23.538Z,79.43
2022-08-26T03:27:23.560Z,79.43
2022-08-26T03:28:23.563Z,79.53
2022-08-26T03:29:23.496Z,79.63
2022-08-26T03:30:23.489Z,79.63
2022-08-26T03:31:24.596Z,79.63
2022-08-26T03:32:23.474Z,79.67
2022-08-26T03:33:23.444Z,79.67
2022-08-26T03:34:23.436Z,79.67
2022-08-26T03:35:23.421Z,79.57
2022-08-26T03:36:23.433Z,79.47
2022-08-26T03:37:23.403Z,79.37
2022-08-26T03:38:23.438Z,79.17
2022-08-26T03:39:23.368Z,79.17
2022-08-26T03:40:23.413Z,79.06
2022-08-26T03:41:23.349Z,78.86
2022-08-26T03:42:23.382Z,78.86
2022-08-26T03:43:23.329Z,78.86
2022-08-26T03:44:23.331Z,78.97
2022-08-26T03:45:23.319Z,79.21
2022-08-26T03:46:23.345Z,79.50
2022-08-26T03:47:23.298Z,79.81
2022-08-26T03:48:23.286Z,80.01
2022-08-26T03:49:23.280Z,80.21
2022-08-26T03:50:24.377Z,80.35
2022-08-26T03:51:23.250Z,80.55
2022-08-26T03:52:23.234Z,80.75
2022-08-26T03:53:23.235Z,80.85
2022-08-26T03:54:23.203Z,80.85
2022-08-26T03:55:23.728Z,80.85
2022-08-26T03:56:23.192Z,80.85
2022-08-26T03:57:23.330Z,80.85
2022-08-26T03:58:23.174Z,80.95
2022-08-26T03:59:23.190Z,80.85
2022-08-26T04:00:23.166Z,80.85
2022-08-26T04:01:23.199Z,80.85
2022-08-26T04:02:23.170Z,80.75
2022-08-26T04:03:23.161Z,80.65
2022-08-26T04:04:24.518Z,80.65
2022-08-26T04:05:23.098Z,80.65
2022-08-26T04:06:23.091Z,80.45
2022-08-26T04:07:23.069Z,80.35
2022-08-26T04:08:23.076Z,80.45
2022-08-26T04:09:23.094Z,80.69
2022-08-26T04:10:23.031Z,80.89
2022-08-26T04:11:24.031Z,80.99
2022-08-26T04:12:23.012Z,80.99
2022-08-26T04:13:23.023Z,81.09
2022-08-26T04:14:23.008Z,81.19
2022-08-26T04:15:22.973Z,81.19
2022-08-26T04:16:23.026Z,81.29
2022-08-26T04:17:24.968Z,81.39
2022-08-26T04:18:22.943Z,81.70
2022-08-26T04:19:22.953Z,81.79
2022-08-26T04:20:23.873Z,81.90
2022-08-26T04:21:22.914Z,81.99
2022-08-26T04:22:24.847Z,82.10
2022-08-26T04:23:22.895Z,82.20
2022-08-26T04:24:22.876Z,82.30
2022-08-26T04:25:24.116Z,82.40
2022-08-26T04:26:22.859Z,82.50
2022-08-26T04:27:22.848Z,82.50
2022-08-26T04:28:22.858Z,82.50
2022-08-26T04:29:22.838Z,82.36
2022-08-26T04:30:22.820Z,82.26
2022-08-26T04:31:22.861Z,82.26
2022-08-26T04:32:22.823Z,81.96
2022-08-26T04:33:32.534Z,81.96
2022-08-26T04:34:23.799Z,81.85
2022-08-26T04:35:25.845Z,81.85
2022-08-26T04:36:22.775Z,81.96
2022-08-26T04:37:22.743Z,82.20
2022-08-26T04:38:22.760Z,82.30
2022-08-26T04:39:22.740Z,82.60
2022-08-26T04:40:22.754Z,82.80
2022-08-26T04:41:22.713Z,82.90
2022-08-26T04:42:26.128Z,82.90
2022-08-26T04:43:22.716Z,82.90
2022-08-26T04:44:22.674Z,82.90
2022-08-26T04:45:23.032Z,82.90
2022-08-26T04:46:22.715Z,82.90
2022-08-26T04:47:22.623Z,82.90
2022-08-26T04:48:22.634Z,82.80
2022-08-26T04:49:22.609Z,82.60
2022-08-26T04:50:22.604Z,82.46
2022-08-26T04:51:22.594Z,82.36
2022-08-26T04:52:22.567Z,82.16
2022-08-26T04:53:22.591Z,82.06
2022-08-26T04:54:22.539Z,81.76
2022-08-26T04:55:37.262Z,81.56
2022-08-26T04:56:23.521Z,81.52
2022-08-26T04:57:22.515Z,81.41
2022-08-26T04:58:22.509Z,81.21
2022-08-26T04:59:22.490Z,81.12
2022-08-26T05:00:22.480Z,80.91
2022-08-26T05:01:22.528Z,80.61
2022-08-26T05:02:23.434Z,80.27
2022-08-26T05:03:22.440Z,80.07
2022-08-26T05:04:22.462Z,79.87
2022-08-26T05:05:22.464Z,79.77
2022-08-26T05:06:22.417Z,79.67
2022-08-26T05:07:22.410Z,79.47
2022-08-26T05:08:22.394Z,79.57
2022-08-26T05:09:23.351Z,79.53
2022-08-26T05:10:22.375Z,79.53
2022-08-26T05:11:22.362Z,79.43
2022-08-26T05:12:22.362Z,79.43
2022-08-26T05:13:22.340Z,79.33
2022-08-26T05:14:22.387Z,79.23
2022-08-26T05:15:22.316Z,79.23
2022-08-26T05:16:22.358Z,79.33
2022-08-26T05:17:22.287Z,79.13
2022-08-26T05:18:22.805Z,79.03
2022-08-26T05:19:22.267Z,78.93
2022-08-26T05:20:26.071Z,78.73
2022-08-26T05:21:22.268Z,78.73
2022-08-26T05:22:22.294Z,78.73
2022-08-26T05:23:22.233Z,78.73
2022-08-26T05:24:22.237Z,78.66
2022-08-26T05:25:22.229Z,78.66
2022-08-26T05:26:22.966Z,78.77
2022-08-26T05:27:22.192Z,78.97
2022-08-26T05:28:22.166Z,79.37
2022-08-26T05:29:22.151Z,79.47
2022-08-26T05:30:22.167Z,79.57
2022-08-26T05:31:22.159Z,79.67
2022-08-26T05:32:22.159Z,79.67
2022-08-26T05:33:22.111Z,79.87
2022-08-26T05:34:22.117Z,79.87
2022-08-26T05:35:22.106Z,79.77
2022-08-26T05:36:22.093Z,79.71
2022-08-26T05:37:22.076Z,80.21
2022-08-26T05:38:22.070Z,80.21
2022-08-26T05:39:22.045Z,80.11
2022-08-26T05:40:22.121Z,80.11
2022-08-26T05:41:22.026Z,79.77
2022-08-26T05:42:22.048Z,79.77
2022-08-26T05:43:22.018Z,79.67
2022-08-26T05:44:22.430Z,79.57
2022-08-26T05:45:21.978Z,79.73
2022-08-26T05:46:21.990Z,79.63
2022-08-26T05:47:21.950Z,79.63
2022-08-26T05:48:24.346Z,79.63
2022-08-26T05:49:26.205Z,79.43
2022-08-26T05:50:21.935Z,79.53
2022-08-26T05:51:25.848Z,79.73
2022-08-26T05:52:21.894Z,79.43
2022-08-26T05:53:21.914Z,79.29
2022-08-26T05:54:22.565Z,79.09
2022-08-26T05:55:21.876Z,79.09
2022-08-26T05:56:21.857Z,78.75
2022-08-26T05:57:23.081Z,78.55
2022-08-26T05:58:21.839Z,78.45
2022-08-26T05:59:24.669Z,78.15
2022-08-26T06:00:21.817Z,77.72
2022-08-26T06:01:21.899Z,77.81
2022-08-26T06:02:21.843Z,77.72
2022-08-26T06:03:21.786Z,77.61
2022-08-26T06:04:21.822Z,77.61
2022-08-26T06:05:21.773Z,78.22
2022-08-26T06:06:27.342Z,78.11
2022-08-26T06:07:22.734Z,78.31
2022-08-26T06:08:21.743Z,78.52
2022-08-26T06:09:21.727Z,78.72
2022-08-26T06:10:32.098Z,78.31
2022-08-26T06:11:22.751Z,78.11
2022-08-26T06:12:21.683Z,78.11
2022-08-26T06:13:21.702Z,78.02
2022-08-26T06:14:21.668Z,77.98
2022-08-26T06:15:21.657Z,77.87
2022-08-26T06:16:21.731Z,77.67
2022-08-26T06:17:21.630Z,77.48
2022-08-26T06:18:21.609Z,77.24
2022-08-26T06:19:21.616Z,77.14
2022-08-26T06:20:21.603Z,76.54
2022-08-26T06:21:21.594Z,76.74
2022-08-26T06:22:23.471Z,76.43
2022-08-26T06:23:21.553Z,76.80
2022-08-26T06:24:21.567Z,76.40
2022-08-26T06:25:22.554Z,76.50
2022-08-26T06:26:21.548Z,76.50
2022-08-26T06:27:21.520Z,76.17
2022-08-26T06:28:21.514Z,76.06
2022-08-26T06:29:24.028Z,75.56
2022-08-26T06:30:21.536Z,75.46
2022-08-26T06:31:21.524Z,75.37
2022-08-26T06:32:21.515Z,75.67
2022-08-26T06:33:21.458Z,75.46
2022-08-26T06:34:21.475Z,75.46
2022-08-26T06:35:21.418Z,75.56
2022-08-26T06:36:21.438Z,76.06
2022-08-26T06:37:21.424Z,75.96
2022-08-26T06:38:21.397Z,76.13
2022-08-26T06:39:21.385Z,75.83
2022-08-26T06:40:21.470Z,75.73
2022-08-26T06:41:21.376Z,75.73
2022-08-26T06:42:21.351Z,75.59
2022-08-26T06:43:21.331Z,74.79
2022-08-26T06:44:21.378Z,74.55
2022-08-26T06:45:21.315Z,74.66
2022-08-26T06:46:21.341Z,74.42
2022-08-26T06:47:21.324Z,74.22
2022-08-26T06:48:21.288Z,74.12
2022-08-26T06:49:26.926Z,74.02
2022-08-26T06:50:22.279Z,73.62
2022-08-26T06:51:23.683Z,73.52
2022-08-26T06:52:24.395Z,73.22
2022-08-26T06:53:21.229Z,73.02
2022-08-26T06:54:21.240Z,73.32
2022-08-26T06:55:21.238Z,73.28
2022-08-26T06:56:22.210Z,73.09
2022-08-26T06:57:21.271Z,72.99
2022-08-26T06:58:21.169Z,73.69
2022-08-26T06:59:21.208Z,74.19
2022-08-26T07:00:21.171Z,73.69
2022-08-26T07:01:21.233Z,74.19
2022-08-26T07:02:21.141Z,73.58
2022-08-26T07:03:22.059Z,73.49
2022-08-26T07:04:22.341Z,73.49
2022-08-26T07:05:21.109Z,73.39
2022-08-26T07:06:21.082Z,73.05
2022-08-26T07:07:21.611Z,73.15
2022-08-26T07:08:21.169Z,72.95
2022-08-26T07:09:21.131Z,72.75
2022-08-26T07:10:21.058Z,72.95
2022-08-26T07:11:21.024Z,73.05
2022-08-26T07:12:21.026Z,72.25
2022-08-26T07:13:30.573Z,72.65
2022-08-26T07:14:22.093Z,72.35
2022-08-26T07:15:27.221Z,72.22
2022-08-26T07:16:22.049Z,72.95
2022-08-26T07:17:20.959Z,72.42
2022-08-26T07:18:22.944Z,72.52
2022-08-26T07:19:30.632Z,72.42
2022-08-26T07:20:22.015Z,72.42
2022-08-26T07:21:20.938Z,72.52
2022-08-26T07:22:20.909Z,72.52
2022-08-26T07:23:20.889Z,71.89
2022-08-26T07:24:20.892Z,71.89
2022-08-26T07:25:20.878Z,72.19
2022-08-26T07:26:20.852Z,71.98
2022-08-26T07:27:20.882Z,71.35
2022-08-26T07:28:20.842Z,71.45
2022-08-26T07:29:20.855Z,71.15
2022-08-26T07:30:20.841Z,71.15
2022-08-26T07:31:20.913Z,71.05
2022-08-26T07:32:20.794Z,71.05
2022-08-26T07:33:20.793Z,71.35
2022-08-26T07:34:20.772Z,71.65
2022-08-26T07:35:20.807Z,71.75
2022-08-26T07:36:20.745Z,71.75
2022-08-26T07:37:20.770Z,71.62
2022-08-26T07:38:20.732Z,71.62
2022-08-26T07:39:20.703Z,71.32
2022-08-26T07:40:20.833Z,71.02
2022-08-26T07:41:20.775Z,70.62
2022-08-26T07:42:20.697Z,70.82
2022-08-26T07:43:20.677Z,70.92
2022-08-26T07:44:20.653Z,70.59
2022-08-26T07:45:20.650Z,70.29
2022-08-26T07:46:27.044Z,70.09
2022-08-26T07:47:24.713Z,69.99
2022-08-26T07:48:21.389Z,70.09
2022-08-26T07:49:20.724Z,70.15
2022-08-26T07:50:20.642Z,70.36
2022-08-26T07:51:20.582Z,69.89
2022-08-26T07:52:25.309Z,69.89
2022-08-26T07:53:21.573Z,69.89
2022-08-26T07:54:20.567Z,70.36
2022-08-26T07:55:21.554Z,70.36
2022-08-26T07:56:20.540Z,69.96
2022-08-26T07:57:20.519Z,69.85
2022-08-26T07:58:20.527Z,70.15
2022-08-26T07:59:20.487Z,70.22
2022-08-26T08:00:20.518Z,69.73
2022-08-26T08:01:20.563Z,69.43
2022-08-26T08:02:20.472Z,68.73
2022-08-26T08:03:20.457Z,68.50
2022-08-26T08:04:26.208Z,68.70
2022-08-26T08:05:21.436Z,68.80
2022-08-26T08:06:20.414Z,69.29
2022-08-26T08:07:20.431Z,68.60
2022-08-26T08:08:27.628Z,68.66
2022-08-26T08:09:22.315Z,68.27
2022-08-26T08:10:20.816Z,68.16
2022-08-26T08:11:20.362Z,68.07
2022-08-26T08:12:20.381Z,67.97
2022-08-26T08:13:20.364Z,67.74
2022-08-26T08:14:22.013Z,67.44
2022-08-26T08:15:20.312Z,67.87
2022-08-26T08:16:20.313Z,67.67
2022-08-26T08:17:20.319Z,67.77
2022-08-26T08:18:20.395Z,67.57
2022-08-26T08:19:20.274Z,67.57
2022-08-26T08:20:20.296Z,67.27
2022-08-26T08:21:22.002Z,66.94
2022-08-26T08:22:20.239Z,66.74
2022-08-26T08:23:20.257Z,66.64
2022-08-26T08:24:20.239Z,66.25
2022-08-26T08:25:20.216Z,67.11
2022-08-26T08:26:20.197Z,67.41
2022-08-26T08:27:23.705Z,67.01
2022-08-26T08:28:20.187Z,66.91
2022-08-26T08:29:20.175Z,66.58
2022-08-26T08:30:22.690Z,66.58
2022-08-26T08:31:38.717Z,66.08
2022-08-26T08:32:21.141Z,65.59
2022-08-26T08:33:20.159Z,65.49
2022-08-26T08:34:21.589Z,65.29
2022-08-26T08:35:20.102Z,65.29
2022-08-26T08:36:20.536Z,65.99
2022-08-26T08:37:20.084Z,65.59
2022-08-26T08:38:22.032Z,65.59
2022-08-26T08:39:20.074Z,66.38
2022-08-26T08:40:20.143Z,65.09
2022-08-26T08:41:20.039Z,65.89
2022-08-26T08:42:20.046Z,65.59
2022-08-26T08:43:20.029Z,65.29
2022-08-26T08:44:20.137Z,65.49
2022-08-26T08:45:19.999Z,65.69
2022-08-26T08:46:20.021Z,65.49
2022-08-26T08:47:20.691Z,65.49
2022-08-26T08:48:19.962Z,65.99
2022-08-26T08:49:19.946Z,65.99
2022-08-26T08:50:19.963Z,66.02
2022-08-26T08:51:19.940Z,65.99
2022-08-26T08:52:19.914Z,66.18
2022-08-26T08:53:19.908Z,66.28
2022-08-26T08:54:19.907Z,66.38
2022-08-26T08:55:19.893Z,66.48
2022-08-26T08:56:19.883Z,65.99
2022-08-26T08:57:19.880Z,66.18
2022-08-26T08:58:19.858Z,66.38
2022-08-26T08:59:19.843Z,66.48
2022-08-26T09:00:19.858Z,66.18
2022-08-26T09:01:20.841Z,65.89
2022-08-26T09:02:19.865Z,65.69
2022-08-26T09:03:19.809Z,65.09
2022-08-26T09:04:19.787Z,64.20
2022-08-26T09:05:19.777Z,63.90
2022-08-26T09:06:19.779Z,64.10
2022-08-26T09:07:19.771Z,64.89
2022-08-26T09:08:20.030Z,64.70
2022-08-26T09:09:19.755Z,64.59
2022-08-26T09:10:19.720Z,64.40
2022-08-26T09:11:19.718Z,64.20
2022-08-26T09:12:19.721Z,64.00
2022-08-26T09:13:26.383Z,64.17
2022-08-26T09:14:20.692Z,63.97
2022-08-26T09:15:19.682Z,63.67
2022-08-26T09:16:20.456Z,64.07
2022-08-26T09:17:19.646Z,63.48
2022-08-26T09:18:19.654Z,63.24
2022-08-26T09:19:19.737Z,62.45
2022-08-26T09:20:19.621Z,63.15
2022-08-26T09:21:19.602Z,62.85
2022-08-26T09:22:19.637Z,62.82
2022-08-26T09:23:19.576Z,62.72
2022-08-26T09:24:19.566Z,62.23
2022-08-26T09:25:19.593Z,62.02
2022-08-26T09:26:19.548Z,61.93
2022-08-26T09:27:19.554Z,62.12
2022-08-26T09:28:19.528Z,62.02
2022-08-26T09:30:19.509Z,62.12
2022-08-26T09:31:19.575Z,61.80
2022-08-26T09:32:19.481Z,62.19
2022-08-26T09:33:19.494Z,61.90
2022-08-26T09:34:19.455Z,61.60
2022-08-26T09:35:19.451Z,61.21
2022-08-26T09:36:19.454Z,61.10
2022-08-26T09:37:19.449Z,61.37
2022-08-26T09:38:19.407Z,61.47
2022-08-26T09:39:19.400Z,61.67
2022-08-26T09:40:19.516Z,60.97
2022-08-26T09:41:19.403Z,60.28
2022-08-26T09:42:19.364Z,60.08
2022-08-26T09:43:22.794Z,60.06
2022-08-26T09:44:19.354Z,59.36
2022-08-26T09:45:19.372Z,59.06
2022-08-26T09:46:19.473Z,59.06
2022-08-26T09:47:19.331Z,59.66
2022-08-26T09:48:19.310Z,59.73
2022-08-26T09:49:19.298Z,59.53
2022-08-26T09:50:19.287Z,59.14
2022-08-26T09:51:19.281Z,59.73
2022-08-26T09:52:19.259Z,59.56
2022-08-26T09:53:20.984Z,59.86
2022-08-26T09:54:20.797Z,59.66
2022-08-26T09:55:19.263Z,60.25
2022-08-26T09:56:19.239Z,60.45
2022-08-26T09:57:19.237Z,60.35
2022-08-26T09:58:19.221Z,59.86
2022-08-26T09:59:19.195Z,59.83
2022-08-26T10:00:19.174Z,59.63
2022-08-26T10:01:19.466Z,59.44
2022-08-26T10:02:19.166Z,59.44
2022-08-26T10:03:19.160Z,59.90
2022-08-26T10:04:19.214Z,59.01
2022-08-26T10:05:19.118Z,58.91
2022-08-26T10:06:20.935Z,58.72
2022-08-26T10:07:19.156Z,58.42
2022-08-26T10:08:19.089Z,58.51
2022-08-26T10:09:19.086Z,58.51
2022-08-26T10:10:19.090Z,58.69
2022-08-26T10:11:19.061Z,58.29
2022-08-26T10:12:19.069Z,58.29
2022-08-26T10:13:19.031Z,58.09
2022-08-26T10:14:19.028Z,58.00
2022-08-26T10:15:19.013Z,58.59
2022-08-26T10:16:19.092Z,57.70
2022-08-26T10:17:18.996Z,57.10
2022-08-26T10:18:18.985Z,56.71
2022-08-26T10:19:18.972Z,56.12
2022-08-26T10:20:23.419Z,56.38
2022-08-26T10:21:19.954Z,56.09
2022-08-26T10:22:18.937Z,56.29
2022-08-26T10:23:18.979Z,56.78
2022-08-26T10:24:18.936Z,56.29
2022-08-26T10:25:18.930Z,55.79
2022-08-26T10:26:18.900Z,55.89
2022-08-26T10:27:18.887Z,55.79
2022-08-26T10:28:18.870Z,55.89
2022-08-26T10:29:18.896Z,55.30
2022-08-26T10:30:18.866Z,55.00
2022-08-26T10:31:18.859Z,55.40
2022-08-26T10:32:18.907Z,55.79
2022-08-26T10:33:18.831Z,55.57
2022-08-26T10:34:18.834Z,55.37
2022-08-26T10:35:18.806Z,55.77
2022-08-26T10:36:20.221Z,55.35
2022-08-26T10:37:18.792Z,55.54
2022-08-26T10:38:18.774Z,55.44
2022-08-26T10:39:18.776Z,55.35
2022-08-26T10:40:18.812Z,55.24
2022-08-26T10:41:18.766Z,54.65
2022-08-26T10:42:18.728Z,54.78
2022-08-26T10:43:18.718Z,55.24
2022-08-26T10:44:18.703Z,54.75
2022-08-26T10:45:18.706Z,54.75
2022-08-26T10:46:19.730Z,54.46
2022-08-26T10:47:18.675Z,54.75
2022-08-26T10:48:18.661Z,55.05
2022-08-26T10:49:18.671Z,52.58
2022-08-26T10:50:18.920Z,53.77
2022-08-26T10:51:18.651Z,53.86
2022-08-26T10:52:18.611Z,53.86
2022-08-26T10:53:18.603Z,54.13
2022-08-26T10:54:19.601Z,53.64
2022-08-26T10:55:18.604Z,53.94
2022-08-26T10:56:19.370Z,53.34
2022-08-26T10:57:18.586Z,53.64
2022-08-26T10:58:26.679Z,53.12
2022-08-26T10:59:19.556Z,52.83
2022-08-26T11:00:18.563Z,53.02
2022-08-26T11:01:22.864Z,52.23
2022-08-26T11:02:22.816Z,51.92
2022-08-26T11:03:22.056Z,51.52
2022-08-26T11:04:18.592Z,51.52
2022-08-26T11:05:18.474Z,51.03
2022-08-26T11:06:18.492Z,50.54
2022-08-26T11:07:18.462Z,50.44
2022-08-26T11:08:18.456Z,50.14
2022-08-26T11:09:18.439Z,50.24
2022-08-26T11:10:19.435Z,50.54
2022-08-26T11:11:18.436Z,50.83
2022-08-26T11:12:18.401Z,50.81
2022-08-26T11:13:18.388Z,50.71
2022-08-26T11:14:18.408Z,50.61
2022-08-26T11:15:19.400Z,50.31
2022-08-26T11:16:20.382Z,49.73
2022-08-26T11:17:18.341Z,49.43
2022-08-26T11:18:18.352Z,49.52
2022-08-26T11:19:18.329Z,49.73
2022-08-26T11:20:19.342Z,50.02
2022-08-26T11:21:18.305Z,50.02
2022-08-26T11:22:19.314Z,49.92
2022-08-26T11:23:18.303Z,50.21
2022-08-26T11:24:18.294Z,50.12
2022-08-26T11:25:18.460Z,50.21
2022-08-26T11:26:35.791Z,50.21
2022-08-26T11:27:19.265Z,50.12
2022-08-26T11:28:18.241Z,50.21
2022-08-26T11:29:18.221Z,50.12
2022-08-26T11:30:18.490Z,50.02
2022-08-26T11:31:18.278Z,50.31
2022-08-26T11:32:18.189Z,50.51
2022-08-26T11:33:18.193Z,50.61
2022-08-26T11:34:18.206Z,50.42
2022-08-26T11:35:18.152Z,50.42
2022-08-26T11:36:18.174Z,50.21
2022-08-26T11:37:18.143Z,50.12
2022-08-26T11:38:18.321Z,50.21
2022-08-26T11:39:18.142Z,50.19
2022-08-26T11:40:18.142Z,50.09
2022-08-26T11:41:18.107Z,50.19
2022-08-26T11:42:20.254Z,50.19
2022-08-26T11:43:18.111Z,50.09
2022-08-26T11:44:18.073Z,50.09
2022-08-26T11:45:18.091Z,50.09
2022-08-26T11:46:18.112Z,49.82
2022-08-26T11:47:18.038Z,50.42
2022-08-26T11:48:18.047Z,50.90
2022-08-26T11:49:18.025Z,51.00
2022-08-26T11:50:18.022Z,51.00
2022-08-26T11:51:18.040Z,51.00
2022-08-26T11:52:18.018Z,50.68
2022-08-26T11:53:17.985Z,50.78
2022-08-26T11:54:17.980Z,50.68
2022-08-26T11:55:19.221Z,50.59
2022-08-26T11:56:18.897Z,50.68
2022-08-26T11:57:18.065Z,50.88
2022-08-26T11:58:17.948Z,50.19
2022-08-26T11:59:17.913Z,50.19
2022-08-26T12:00:22.227Z,50.29
2022-08-26T12:01:17.922Z,50.61
2022-08-26T12:02:18.216Z,50.68
2022-08-26T12:03:17.946Z,50.68
2022-08-26T12:04:17.985Z,50.59
2022-08-26T12:05:17.881Z,50.29
2022-08-26T12:06:17.901Z,50.39
2022-08-26T12:07:18.503Z,50.61
2022-08-26T12:08:18.824Z,50.81
2022-08-26T12:09:17.823Z,50.68
2022-08-26T12:10:17.800Z,50.39
2022-08-26T12:11:17.777Z,50.68
2022-08-26T12:12:17.788Z,50.59
2022-08-26T12:13:17.784Z,50.29
2022-08-26T12:14:17.764Z,50.16
2022-08-26T12:15:17.759Z,50.16
2022-08-26T12:16:17.796Z,50.16
2022-08-26T12:17:17.726Z,50.09
2022-08-26T12:18:17.732Z,50.09
2022-08-26T12:19:17.739Z,49.80
2022-08-26T12:20:17.685Z,49.90
2022-08-26T12:21:17.686Z,49.97
2022-08-26T12:22:17.682Z,49.77
2022-08-26T12:23:17.676Z,49.97
2022-08-26T12:24:17.668Z,50.26
2022-08-26T12:25:17.635Z,50.07
2022-08-26T12:26:17.653Z,49.97
2022-08-26T12:27:17.616Z,49.68
2022-08-26T12:28:17.637Z,49.80
2022-08-26T12:29:26.523Z,49.70
2022-08-26T12:30:19.280Z,49.90
2022-08-26T12:31:17.651Z,50.21
2022-08-26T12:32:17.570Z,50.61
2022-08-26T12:33:22.643Z,50.61
2022-08-26T12:34:18.735Z,50.42
2022-08-26T12:35:17.534Z,50.51
2022-08-26T12:36:17.528Z,50.31
2022-08-26T12:37:18.810Z,49.92
2022-08-26T12:38:17.522Z,50.04
2022-08-26T12:39:17.491Z,50.14
2022-08-26T12:40:17.514Z,50.54
2022-08-26T12:41:19.457Z,50.73
2022-08-26T12:42:17.458Z,50.93
2022-08-26T12:43:17.458Z,50.63
2022-08-26T12:44:17.449Z,50.54
2022-08-26T12:45:17.429Z,50.63
2022-08-26T12:46:17.425Z,50.83
2022-08-26T12:47:20.431Z,51.03
2022-08-26T12:48:18.406Z,51.52
2022-08-26T12:49:18.395Z,51.72
2022-08-26T12:50:17.377Z,51.32
2022-08-26T12:51:17.379Z,51.23
2022-08-26T12:52:17.355Z,51.32
2022-08-26T12:53:17.341Z,51.72